Terminal Aerodrome Forecast
Issued by NWS Nashville, TN

Home | Current Version | Previous Version | Text Only | Print | Product List | Glossary On
Versions: 1 2 3 4 5 6 7 8 9 10 11 12 13 14 15 16 17 18 19 20 21 22 23 24 25 26 27 28 29 30 31 32 33 34
945
FTUS44 KOHX 060520
TAFBNA
TAF
KBNA 060520Z 0606/0706 08005KT 4SM -RA BR OVC007
     FM061000 12006KT 2SM RA BR OVC003
     FM061200 20006KT 2SM SHRA OVC005
     FM061500 31010KT 5SM -SHRA BR OVC007
     FM062200 34008KT P6SM OVC015=

USA.gov is the U.S. government's official web portal to all federal, state and local government web resources and services.